Terminal Aerodrome Forecast
Issued by NWS Albany, NY

Home | Current Version | Previous Version | Text Only | Print | Product List | Glossary On
Versions: 1 2 3 4 5 6 7 8 9 10 11 12 13 14 15 16 17 18 19 20 21
000
FTUS41 KALY 140400 AAC
TAFGFL
TAF AMD
KGFL 140407Z 1404/1424 19008KT P6SM VCSH SCT007
     FM140600 VRB03KT 3SM BR BKN008 BKN030
     FM141200 VRB03KT P6SM BKN050
     FM141700 19006KT P6SM VCSH BKN050=

USA.gov is the U.S. government's official web portal to all federal, state and local government web resources and services.